createdAt,value
2017-05-30T04:09:08.595Z,9.03
2017-05-30T04:10:08.629Z,8.20
2017-05-30T04:11:08.552Z,8.17
2017-05-30T04:12:08.432Z,7.28
2017-05-30T04:13:08.410Z,5.53
2017-05-30T04:14:08.336Z,5.45
2017-05-30T04:15:08.304Z,5.60
2017-05-30T04:16:08.279Z,6.05
2017-05-30T04:17:08.185Z,6.10
2017-05-30T04:18:08.039Z,7.15
2017-05-30T04:19:07.902Z,6.55
2017-05-30T04:20:07.766Z,8.55
2017-05-30T04:21:07.676Z,7.18
2017-05-30T04:22:07.554Z,8.53
2017-05-30T04:23:07.483Z,9.42
2017-05-30T04:24:07.412Z,8.82
2017-05-30T04:25:07.407Z,8.37
2017-05-30T04:26:07.332Z,7.73
2017-05-30T04:27:07.236Z,10.05
2017-05-30T04:28:07.120Z,9.33
2017-05-30T04:29:06.976Z,9.23
2017-05-30T04:30:06.885Z,9.15
2017-05-30T04:31:06.730Z,7.48
2017-05-30T04:32:06.586Z,6.87
2017-05-30T04:33:06.530Z,7.90
2017-05-30T04:34:06.420Z,8.38
2017-05-30T04:35:06.345Z,7.40
2017-05-30T04:36:06.271Z,7.90
2017-05-30T04:37:06.143Z,7.07
2017-05-30T04:38:06.010Z,7.17
2017-05-30T04:39:06.302Z,6.45
2017-05-30T04:40:06.203Z,8.05
2017-05-30T04:41:06.099Z,7.83
2017-05-30T04:42:05.944Z,7.45
2017-05-30T04:43:05.811Z,7.65
2017-05-30T04:44:05.710Z,6.98
2017-05-30T04:45:05.552Z,6.83
2017-05-30T04:46:05.433Z,6.13
2017-05-30T04:47:05.394Z,7.23
2017-05-30T04:48:05.254Z,6.45
2017-05-30T04:49:05.139Z,6.02
2017-05-30T04:50:05.008Z,6.57
2017-05-30T04:51:04.886Z,6.28
2017-05-30T04:52:04.867Z,8.10
2017-05-30T04:53:04.755Z,7.23
2017-05-30T04:54:04.705Z,7.48
2017-05-30T04:55:04.691Z,7.07
2017-05-30T04:56:04.610Z,7.28
2017-05-30T04:57:04.507Z,6.28
2017-05-30T04:58:04.379Z,6.63
2017-05-30T04:59:04.220Z,6.57
2017-05-30T05:00:04.079Z,5.88
2017-05-30T05:01:04.021Z,6.05
2017-05-30T05:02:03.963Z,5.83
2017-05-30T05:03:03.859Z,5.58
2017-05-30T05:04:03.760Z,5.45
2017-05-30T05:05:03.721Z,5.75
2017-05-30T05:06:18.885Z,5.98
2017-05-30T05:07:18.816Z,5.62
2017-05-30T05:08:18.755Z,5.27
2017-05-30T05:09:18.669Z,5.08
2017-05-30T05:10:18.575Z,5.12
2017-05-30T05:11:18.542Z,5.07
2017-05-30T05:12:18.530Z,5.07
2017-05-30T05:13:18.486Z,5.38
2017-05-30T05:14:18.392Z,5.22
2017-05-30T05:15:18.342Z,4.70
2017-05-30T05:16:18.316Z,5.32
2017-05-30T05:17:18.220Z,4.35
2017-05-30T05:18:18.119Z,5.17
2017-05-30T05:19:18.054Z,4.45
2017-05-30T05:20:17.954Z,4.40
2017-05-30T05:21:17.871Z,4.52
2017-05-30T05:22:17.746Z,4.93
2017-05-30T05:23:17.632Z,4.32
2017-05-30T05:24:17.509Z,4.85
2017-05-30T05:25:17.423Z,4.50
2017-05-30T05:26:17.258Z,4.97
2017-05-30T05:27:17.196Z,4.53
2017-05-30T05:28:17.042Z,4.60
2017-05-30T05:29:16.882Z,5.03
2017-05-30T05:30:16.789Z,4.72
2017-05-30T05:31:16.649Z,4.27
2017-05-30T05:32:16.486Z,4.75
2017-05-30T05:33:16.364Z,4.42
2017-05-30T05:34:16.242Z,4.80
2017-05-30T05:35:16.151Z,5.10
2017-05-30T05:36:16.006Z,4.65
2017-05-30T05:37:16.028Z,4.58
2017-05-30T05:38:15.995Z,4.83
2017-05-30T05:39:15.838Z,4.62
2017-05-30T05:40:15.746Z,4.45
2017-05-30T05:41:15.599Z,4.63
2017-05-30T05:42:15.453Z,5.40
2017-05-30T05:43:15.347Z,4.32
2017-05-30T05:44:15.300Z,5.05
2017-05-30T05:45:15.180Z,5.85
2017-05-30T05:46:15.067Z,5.08
2017-05-30T05:47:14.914Z,4.40
2017-05-30T05:48:14.831Z,4.85
2017-05-30T05:49:14.792Z,4.40
2017-05-30T05:50:14.703Z,4.55
2017-05-30T05:51:53.892Z,3.98
2017-05-30T05:52:53.810Z,4.30
2017-05-30T05:53:53.724Z,3.60
2017-05-30T05:54:53.581Z,4.10
2017-05-30T05:55:53.427Z,3.80
2017-05-30T05:56:53.347Z,4.75
2017-05-30T05:57:53.253Z,3.95
2017-05-30T05:58:53.152Z,3.92
2017-05-30T05:59:53.053Z,3.45
2017-05-30T06:00:52.951Z,4.03
2017-05-30T06:01:52.837Z,3.60
2017-05-30T06:02:52.729Z,3.87
2017-05-30T06:03:52.640Z,3.90
2017-05-30T06:04:52.492Z,4.18
2017-05-30T06:05:52.336Z,3.60
2017-05-30T06:06:52.276Z,3.50
2017-05-30T06:07:52.144Z,3.55
2017-05-30T06:08:52.065Z,3.65
2017-05-30T06:09:51.955Z,4.15
2017-05-30T06:10:51.935Z,3.65
2017-05-30T06:11:51.772Z,3.87
2017-05-30T06:12:51.681Z,3.38
2017-05-30T06:13:51.611Z,4.03
2017-05-30T06:14:51.542Z,3.70
2017-05-30T06:15:51.428Z,3.60
2017-05-30T06:16:51.379Z,3.73
2017-05-30T06:17:51.947Z,4.23
2017-05-30T06:18:51.827Z,4.05
2017-05-30T06:19:51.670Z,4.40
2017-05-30T06:21:08.546Z,4.18
2017-05-30T06:22:08.468Z,4.13
2017-05-30T06:23:08.434Z,4.48
2017-05-30T06:24:08.324Z,2.98
2017-05-30T06:25:08.207Z,4.15
2017-05-30T06:26:08.100Z,4.07
2017-05-30T06:27:08.051Z,3.27
2017-05-30T06:28:08.007Z,4.22
2017-05-30T06:29:07.893Z,3.87
2017-05-30T06:30:07.885Z,3.98
2017-05-30T06:31:07.799Z,3.38
2017-05-30T06:32:07.687Z,4.63
2017-05-30T06:33:07.582Z,4.22
2017-05-30T06:34:07.456Z,4.40
2017-05-30T06:35:07.348Z,4.12
2017-05-30T06:43:35.238Z,4.47
2017-05-30T06:44:35.132Z,4.40
2017-05-30T06:45:35.066Z,4.68
2017-05-30T06:46:34.979Z,4.72
2017-05-30T06:47:34.905Z,4.12
2017-05-30T06:48:34.784Z,4.47
2017-05-30T06:49:34.724Z,4.80
2017-05-30T06:50:34.647Z,4.40
2017-05-30T06:51:34.567Z,4.67
2017-05-30T06:52:34.585Z,4.33
2017-05-30T06:53:34.483Z,4.78
2017-05-30T06:54:34.399Z,4.25
2017-05-30T06:55:34.303Z,4.32
2017-05-30T06:56:34.148Z,4.47
2017-05-30T06:57:34.005Z,4.47
2017-05-30T06:58:33.925Z,4.52
2017-05-30T06:59:33.828Z,3.87
2017-05-30T07:00:33.768Z,4.25
2017-05-30T07:01:33.642Z,4.12
2017-05-30T07:02:33.546Z,4.55
2017-05-30T07:03:33.487Z,4.77
2017-05-30T07:04:33.440Z,4.37
2017-05-30T07:05:33.307Z,4.82
2017-05-30T07:06:33.234Z,4.30
2017-05-30T07:07:33.101Z,4.87
2017-05-30T07:08:32.976Z,4.12
2017-05-30T07:09:32.890Z,4.08
2017-05-30T07:10:32.746Z,4.28
2017-05-30T07:11:32.612Z,4.77
2017-05-30T07:12:32.491Z,4.05
2017-05-30T07:13:32.371Z,3.87
2017-05-30T07:14:32.334Z,4.15
2017-05-30T07:15:32.260Z,3.85
2017-05-30T07:16:32.125Z,4.33
2017-05-30T07:17:32.018Z,4.40
2017-05-30T07:18:32.202Z,3.92
2017-05-30T07:19:32.072Z,3.97
2017-05-30T07:20:32.039Z,3.95
2017-05-30T07:21:31.929Z,4.57
2017-05-30T07:22:31.841Z,3.77
2017-05-30T07:23:31.736Z,4.10
2017-05-30T07:24:31.622Z,4.25
2017-05-30T07:25:31.655Z,3.77
2017-05-30T07:26:31.581Z,4.12
2017-05-30T07:27:31.516Z,3.65
2017-05-30T07:28:31.452Z,3.55
2017-05-30T07:29:31.303Z,3.88
2017-05-30T07:30:31.222Z,4.12
2017-05-30T07:31:31.080Z,3.47
2017-05-30T07:32:31.018Z,4.30
2017-05-30T07:33:30.904Z,3.48
2017-05-30T07:34:30.794Z,4.53
2017-05-30T07:35:30.750Z,4.07
2017-05-30T07:38:39.285Z,3.90
2017-05-30T07:39:39.180Z,4.43
2017-05-30T07:40:39.099Z,4.60
2017-05-30T07:41:38.995Z,4.65
2017-05-30T07:42:38.912Z,4.55
2017-05-30T07:43:38.795Z,4.55
2017-05-30T07:44:38.743Z,4.68
2017-05-30T07:45:38.640Z,4.03
2017-05-30T07:46:39.101Z,3.55
2017-05-30T07:47:39.001Z,3.52
2017-05-30T07:48:38.887Z,3.70
2017-05-30T07:49:38.822Z,4.35
2017-05-30T07:52:12.525Z,4.13
2017-05-30T07:53:12.432Z,4.13
2017-05-30T07:54:12.350Z,3.68
2017-05-30T07:55:12.233Z,3.80
2017-05-30T07:56:12.083Z,3.42
2017-05-30T07:57:11.943Z,3.50
2017-05-30T07:58:11.990Z,3.63
2017-05-30T07:59:11.837Z,4.18
2017-05-30T08:00:11.734Z,3.87
2017-05-30T08:01:11.608Z,3.55
2017-05-30T08:02:11.493Z,4.02
2017-05-30T08:03:11.373Z,3.88
2017-05-30T08:04:11.298Z,4.02
2017-05-30T08:05:11.169Z,4.12
2017-05-30T08:09:55.335Z,4.13
2017-05-30T08:10:55.259Z,3.57
2017-05-30T08:11:55.194Z,3.75
2017-05-30T08:12:55.160Z,3.28
2017-05-30T08:13:55.073Z,4.40
2017-05-30T08:14:54.961Z,3.60
2017-05-30T08:15:54.837Z,3.22
2017-05-30T08:16:54.689Z,3.37
2017-05-30T08:17:54.603Z,3.78
2017-05-30T08:18:54.492Z,3.42
2017-05-30T08:19:54.409Z,3.17
2017-05-30T08:20:54.290Z,4.13
2017-05-30T08:21:54.166Z,2.83
2017-05-30T08:22:54.051Z,3.38
2017-05-30T08:23:53.941Z,2.90
2017-05-30T08:24:53.802Z,3.05
2017-05-30T08:25:53.706Z,3.22
2017-05-30T08:26:53.626Z,3.75
2017-05-30T08:27:53.533Z,2.95
2017-05-30T08:28:53.418Z,3.15
2017-05-30T08:29:53.318Z,3.35
2017-05-30T08:30:53.224Z,3.37
2017-05-30T08:31:53.154Z,3.05
2017-05-30T08:32:53.076Z,3.35
2017-05-30T08:33:53.008Z,3.48
2017-05-30T08:34:52.897Z,3.27
2017-05-30T08:39:36.690Z,3.08
2017-05-30T08:40:36.634Z,3.13
2017-05-30T08:41:36.524Z,3.03
2017-05-30T08:42:36.368Z,3.00
2017-05-30T08:43:36.293Z,2.83
2017-05-30T08:44:36.207Z,3.30
2017-05-30T08:45:36.104Z,2.97
2017-05-30T08:46:36.026Z,2.97
2017-05-30T08:47:35.912Z,3.33
2017-05-30T08:48:35.879Z,3.40
2017-05-30T08:49:35.784Z,2.98
2017-05-30T08:50:35.701Z,2.95
2017-05-30T08:51:56.122Z,2.85
2017-05-30T08:52:55.960Z,2.83
2017-05-30T08:53:55.895Z,3.23
2017-05-30T08:54:55.778Z,2.75
2017-05-30T08:55:55.704Z,2.87
2017-05-30T08:56:55.633Z,2.65
2017-05-30T08:57:55.511Z,3.02
2017-05-30T08:58:55.467Z,2.70
2017-05-30T08:59:55.436Z,3.13
2017-05-30T09:00:55.341Z,3.37
2017-05-30T09:01:55.234Z,2.63
2017-05-30T09:02:55.146Z,2.72
2017-05-30T09:03:55.075Z,3.33
2017-05-30T09:04:54.949Z,3.37
2017-05-30T09:05:54.828Z,3.40
2017-05-30T09:07:15.335Z,3.53
2017-05-30T09:08:15.257Z,2.68
2017-05-30T09:09:15.161Z,2.85
2017-05-30T09:10:15.045Z,2.45
2017-05-30T09:11:14.943Z,3.62
2017-05-30T09:12:14.895Z,2.83
2017-05-30T09:13:14.749Z,2.42
2017-05-30T09:14:14.669Z,2.78
2017-05-30T09:15:14.648Z,2.77
2017-05-30T09:16:14.638Z,3.05
2017-05-30T09:17:14.551Z,2.53
2017-05-30T09:18:14.517Z,2.22
2017-05-30T09:19:14.377Z,2.45
2017-05-30T09:20:14.260Z,2.77
2017-05-30T09:25:34.330Z,2.70
2017-05-30T09:26:34.234Z,3.25
2017-05-30T09:27:34.093Z,2.52
2017-05-30T09:28:33.968Z,2.68
2017-05-30T09:29:33.893Z,2.42
2017-05-30T09:30:33.881Z,2.80
2017-05-30T09:31:33.766Z,2.37
2017-05-30T09:32:33.745Z,2.52
2017-05-30T09:33:33.695Z,2.48
2017-05-30T09:34:33.601Z,2.37
2017-05-30T09:35:33.516Z,2.48
2017-05-30T09:36:50.647Z,2.95
2017-05-30T09:37:50.587Z,2.85
2017-05-30T09:38:50.530Z,2.37
2017-05-30T09:39:50.483Z,2.60
2017-05-30T09:40:50.425Z,2.42
2017-05-30T09:41:50.418Z,2.62
2017-05-30T09:42:50.398Z,3.03
2017-05-30T09:43:50.325Z,2.52
2017-05-30T09:44:50.273Z,2.27
2017-05-30T09:45:50.186Z,2.93
2017-05-30T09:46:50.086Z,2.22
2017-05-30T09:47:49.993Z,2.70
2017-05-30T09:48:50.005Z,2.23
2017-05-30T09:49:50.006Z,2.58
2017-05-30T09:50:50.076Z,2.47
2017-05-30T09:59:34.485Z,2.45
2017-05-30T10:00:34.449Z,2.82
2017-05-30T10:01:34.396Z,2.33
2017-05-30T10:02:34.357Z,2.70
2017-05-30T10:03:34.296Z,2.47
2017-05-30T10:04:34.262Z,2.28
2017-05-30T10:05:34.148Z,2.30
2017-05-30T10:08:46.265Z,2.10
2017-05-30T10:09:46.243Z,2.45
2017-05-30T10:10:46.196Z,2.88
2017-05-30T10:11:47.092Z,2.35
2017-05-30T10:12:46.980Z,2.78
2017-05-30T10:13:46.887Z,2.97
2017-05-30T10:14:46.838Z,2.82
2017-05-30T10:15:46.792Z,2.60
2017-05-30T10:16:46.733Z,2.18
2017-05-30T10:17:46.661Z,2.50
2017-05-30T10:18:46.552Z,2.80
2017-05-30T10:19:46.483Z,2.40
2017-05-30T10:20:46.406Z,2.85
2017-05-30T10:29:14.255Z,2.55
2017-05-30T10:30:14.202Z,2.82
2017-05-30T10:31:14.217Z,3.08
2017-05-30T10:32:14.065Z,2.57
2017-05-30T10:33:13.923Z,2.90
2017-05-30T10:34:13.765Z,2.83
2017-05-30T10:35:13.946Z,2.38
2017-05-30T10:36:13.915Z,2.60
2017-05-30T10:39:44.435Z,2.17
2017-05-30T10:40:44.372Z,3.25
2017-05-30T10:41:44.574Z,2.75
2017-05-30T10:42:45.515Z,2.15
2017-05-30T10:43:45.817Z,2.68
2017-05-30T10:44:46.081Z,2.83
2017-05-30T10:45:48.287Z,2.42
2017-05-30T10:46:48.414Z,2.90
2017-05-30T10:47:48.639Z,2.48
2017-05-30T10:48:48.715Z,2.80
2017-05-30T10:49:48.822Z,2.37
2017-05-30T10:50:48.728Z,2.27
2017-05-30T11:05:13.027Z,2.63
2017-05-30T11:06:13.139Z,2.22
2017-05-30T11:09:38.523Z,2.40
2017-05-30T11:10:38.725Z,2.20
2017-05-30T11:11:39.676Z,2.60
2017-05-30T11:12:40.678Z,2.33
2017-05-30T11:13:41.067Z,2.55
2017-05-30T11:14:41.508Z,2.15
2017-05-30T11:15:41.961Z,2.20
2017-05-30T11:16:42.431Z,2.70
2017-05-30T11:17:42.603Z,2.88
2017-05-30T11:18:42.963Z,2.77
2017-05-30T11:19:43.514Z,2.75
2017-05-30T11:20:44.863Z,2.68
2017-05-30T11:21:45.270Z,3.15
2017-05-30T11:22:47.034Z,2.40
2017-05-30T11:23:48.049Z,2.22
2017-05-30T11:24:48.223Z,2.90
2017-05-30T11:25:49.572Z,2.32
2017-05-30T11:26:49.726Z,3.47
2017-05-30T11:27:50.463Z,2.45
2017-05-30T11:28:50.858Z,2.35
2017-05-30T11:29:51.856Z,2.53
2017-05-30T11:30:52.655Z,2.42
2017-05-30T11:31:52.664Z,2.43
2017-05-30T11:32:53.049Z,2.43
2017-05-30T11:33:54.116Z,2.23
2017-05-30T11:34:54.787Z,2.95
2017-05-30T11:35:55.368Z,2.82
2017-05-30T11:51:51.411Z,2.45
2017-05-30T11:52:52.085Z,3.20
2017-05-30T11:53:52.465Z,2.83
2017-05-30T11:54:53.109Z,2.48
2017-05-30T11:55:53.410Z,2.18
2017-05-30T11:56:53.842Z,2.45
2017-05-30T11:57:54.608Z,2.50
2017-05-30T11:58:56.222Z,2.33
2017-05-30T11:59:56.865Z,2.50
2017-05-30T12:00:56.755Z,3.13
2017-05-30T12:01:57.264Z,2.28
2017-05-30T12:02:57.531Z,2.37
2017-05-30T12:03:57.872Z,2.48
2017-05-30T12:04:57.794Z,2.00
2017-05-30T12:05:58.146Z,2.13
2017-05-30T12:10:41.572Z,2.13
2017-05-30T12:11:41.599Z,2.40
2017-05-30T12:12:41.486Z,2.43
2017-05-30T12:13:41.328Z,2.22
2017-05-30T12:14:41.285Z,2.68
2017-05-30T12:15:41.191Z,2.80
2017-05-30T12:16:41.553Z,2.60
2017-05-30T12:17:42.511Z,2.60
2017-05-30T12:18:42.938Z,2.78
2017-05-30T12:19:42.892Z,2.55
2017-05-30T12:20:43.399Z,2.80
2017-05-30T12:28:58.414Z,2.35
2017-05-30T12:29:58.880Z,2.88
2017-05-30T12:30:59.201Z,2.27
2017-05-30T12:31:59.403Z,2.27
2017-05-30T12:32:59.809Z,3.05
2017-05-30T12:33:59.918Z,2.42
2017-05-30T12:35:00.670Z,2.62
2017-05-30T12:36:00.569Z,2.43
2017-05-30T12:48:12.062Z,2.35
2017-05-30T12:49:11.959Z,3.08
2017-05-30T12:50:12.439Z,2.30
2017-05-30T12:51:12.540Z,2.90
2017-05-30T13:01:31.879Z,2.07
2017-05-30T13:02:32.013Z,2.95
2017-05-30T13:03:32.724Z,2.67
2017-05-30T13:04:32.596Z,2.53
2017-05-30T13:05:33.429Z,2.10
2017-05-30T13:06:33.330Z,2.03
2017-05-30T13:09:45.830Z,2.20
2017-05-30T13:10:45.893Z,2.57
2017-05-30T13:11:47.111Z,2.38
2017-05-30T13:12:47.784Z,2.42
2017-05-30T13:13:48.525Z,2.23
2017-05-30T13:14:49.006Z,2.05
2017-05-30T13:15:49.711Z,2.57
2017-05-30T13:16:50.178Z,2.67
2017-05-30T13:17:50.341Z,2.40
2017-05-30T13:18:50.589Z,2.67
2017-05-30T13:19:50.459Z,4.70
2017-05-30T13:20:50.333Z,3.45
2017-05-30T13:21:50.227Z,2.78
2017-05-30T13:34:21.751Z,3.05
2017-05-30T13:35:21.637Z,2.25
2017-05-30T13:36:21.550Z,2.57
2017-05-30T13:39:29.875Z,2.83
2017-05-30T13:40:29.814Z,2.13
2017-05-30T13:41:29.728Z,2.87
2017-05-30T13:42:29.598Z,2.58
2017-05-30T13:43:29.803Z,2.55
2017-05-30T13:44:30.046Z,3.28
2017-05-30T13:45:30.025Z,2.50
2017-05-30T13:46:30.258Z,2.85
2017-05-30T13:47:30.439Z,2.42
2017-05-30T13:48:30.379Z,2.73
2017-05-30T13:49:30.230Z,3.20
2017-05-30T13:50:30.458Z,3.37
2017-05-30T13:51:30.384Z,3.32
2017-05-30T14:09:54.075Z,3.02
2017-05-30T14:10:53.934Z,2.65
2017-05-30T14:11:53.871Z,3.05
2017-05-30T14:12:53.844Z,3.23
2017-05-30T14:13:53.843Z,2.63
2017-05-30T14:14:53.793Z,2.33
2017-05-30T14:15:53.958Z,2.90
2017-05-30T14:16:53.910Z,2.37
2017-05-30T14:17:54.009Z,2.77
2017-05-30T14:18:53.883Z,2.77
2017-05-30T14:19:53.860Z,2.75
2017-05-30T14:20:53.797Z,2.90
2017-05-30T14:21:53.731Z,2.53
2017-05-30T14:23:30.472Z,2.55
2017-05-30T14:24:30.405Z,2.08
2017-05-30T14:25:30.614Z,2.28
2017-05-30T14:26:30.535Z,2.80
2017-05-30T14:27:30.451Z,2.30
2017-05-30T14:28:30.356Z,2.87
2017-05-30T14:29:30.324Z,2.15
2017-05-30T14:30:30.250Z,2.25
2017-05-30T14:31:30.183Z,2.40
2017-05-30T14:32:30.394Z,2.48
2017-05-30T14:33:30.385Z,2.43
2017-05-30T14:34:30.299Z,2.75
2017-05-30T14:35:30.146Z,2.50
2017-05-30T14:36:30.006Z,1.88
2017-05-30T14:37:30.234Z,2.03
2017-05-30T14:38:30.139Z,2.15
2017-05-30T14:39:30.053Z,2.60
2017-05-30T14:40:30.203Z,2.67
2017-05-30T14:41:30.128Z,2.47
2017-05-30T14:42:30.055Z,2.28
2017-05-30T14:43:29.985Z,2.07
2017-05-30T14:44:29.911Z,2.28
2017-05-30T14:45:29.850Z,3.20
2017-05-30T14:46:29.749Z,2.62
2017-05-30T14:47:29.641Z,2.28
2017-05-30T14:48:29.888Z,3.52
2017-05-30T14:49:30.066Z,2.62
2017-05-30T14:50:30.028Z,2.40
2017-05-30T14:51:30.013Z,2.77
2017-05-30T15:00:34.153Z,3.40
2017-05-30T15:01:34.120Z,3.03
2017-05-30T15:02:34.073Z,2.68
2017-05-30T15:03:34.082Z,2.65
2017-05-30T15:04:34.029Z,2.73
2017-05-30T15:05:34.182Z,2.83
2017-05-30T15:06:34.119Z,3.05
2017-05-30T15:07:34.000Z,3.20
2017-05-30T15:08:33.908Z,2.85
2017-05-30T15:09:33.803Z,2.98
2017-05-30T15:10:33.724Z,3.47
2017-05-30T15:11:33.655Z,3.58
2017-05-30T15:12:33.632Z,2.97
2017-05-30T15:13:33.582Z,2.97
2017-05-30T15:14:33.672Z,3.13
2017-05-30T15:15:33.831Z,2.62
2017-05-30T15:16:34.588Z,2.95
2017-05-30T15:17:34.999Z,2.80
2017-05-30T15:18:35.830Z,3.15
2017-05-30T15:19:36.344Z,3.85
2017-05-30T15:20:36.579Z,3.73
2017-05-30T15:21:37.111Z,3.30
2017-05-30T15:35:44.736Z,3.10
2017-05-30T15:36:46.123Z,3.53
2017-05-30T15:42:04.833Z,3.02
2017-05-30T15:43:05.024Z,3.60
2017-05-30T15:44:05.239Z,3.30
2017-05-30T15:45:05.449Z,3.50
2017-05-30T15:46:05.700Z,3.90
2017-05-30T15:47:05.699Z,3.37
2017-05-30T15:48:05.806Z,3.22
2017-05-30T15:49:05.737Z,3.43
2017-05-30T15:50:05.655Z,3.42
2017-05-30T15:51:05.804Z,4.07
2017-05-30T15:52:05.733Z,3.47
2017-05-30T16:13:36.660Z,2.07
2017-05-30T16:14:36.783Z,2.43
2017-05-30T16:15:36.886Z,2.08
2017-05-30T16:16:36.969Z,2.13
2017-05-30T16:17:37.013Z,2.82
2017-05-30T16:18:36.890Z,2.60
2017-05-30T16:19:36.860Z,2.50
2017-05-30T16:20:36.867Z,2.32
2017-05-30T16:21:36.725Z,2.68
2017-05-30T16:22:36.668Z,2.62
2017-05-30T16:44:44.984Z,2.47
2017-05-30T16:45:45.057Z,2.70
2017-05-30T16:46:45.056Z,2.32
2017-05-30T16:47:44.984Z,2.22
2017-05-30T16:48:45.017Z,3.07
2017-05-30T16:49:44.925Z,2.23
2017-05-30T16:50:45.107Z,2.80
2017-05-30T16:51:45.088Z,2.43
2017-05-30T16:52:45.011Z,2.68
2017-05-30T16:53:45.083Z,2.75
2017-05-30T16:54:45.091Z,2.22
2017-05-30T16:55:45.333Z,2.45
2017-05-30T16:56:45.283Z,2.25
2017-05-30T16:57:45.409Z,2.30
2017-05-30T16:58:45.288Z,2.48
2017-05-30T16:59:45.343Z,2.68
2017-05-30T17:00:45.262Z,3.02
2017-05-30T17:01:45.132Z,2.62
2017-05-30T17:02:45.013Z,2.55
2017-05-30T17:03:44.944Z,3.03
2017-05-30T17:04:44.818Z,2.47
2017-05-30T17:05:44.730Z,2.47
2017-05-30T17:06:44.663Z,2.72
2017-05-30T17:07:44.574Z,2.65
2017-05-30T17:12:28.766Z,1.90
2017-05-30T17:13:28.889Z,2.40
2017-05-30T17:14:28.857Z,2.18
2017-05-30T17:15:28.776Z,2.72
2017-05-30T17:16:28.674Z,2.27
2017-05-30T17:17:28.865Z,2.23
2017-05-30T17:18:28.789Z,2.35
2017-05-30T17:19:28.715Z,2.35
2017-05-30T17:20:28.675Z,1.97
2017-05-30T17:21:28.605Z,2.00
2017-05-30T17:22:28.462Z,2.68
2017-05-30T17:27:32.848Z,2.88
2017-05-30T17:28:32.759Z,2.40
2017-05-30T17:29:32.707Z,3.32
2017-05-30T17:30:32.631Z,2.98
2017-05-30T17:31:33.603Z,1.78
2017-05-30T17:32:33.513Z,2.72
2017-05-30T17:33:33.687Z,2.37
2017-05-30T17:34:33.906Z,2.58
2017-05-30T17:35:33.820Z,2.52
2017-05-30T17:36:33.710Z,2.33
